sensor_id;sensor_type;location;lat;lon;timestamp;P1;durP1;ratioP1;P2;durP2;ratioP2
63784;SDS011;49927;48.146;11.420;2022-08-19T00:01:32;9.73;;;7.70;;
63784;SDS011;49927;48.146;11.420;2022-08-19T00:03:59;10.05;;;7.10;;
63784;SDS011;49927;48.146;11.420;2022-08-19T00:06:27;9.13;;;7.22;;
63784;SDS011;49927;48.146;11.420;2022-08-19T00:08:53;12.40;;;9.02;;
63784;SDS011;49927;48.146;11.420;2022-08-19T00:11:20;12.45;;;9.25;;
63784;SDS011;49927;48.146;11.420;2022-08-19T00:13:46;14.35;;;10.20;;
63784;SDS011;49927;48.146;11.420;2022-08-19T00:16:12;10.75;;;9.05;;
63784;SDS011;49927;48.146;11.420;2022-08-19T00:18:37;13.27;;;11.02;;
63784;SDS011;49927;48.146;11.420;2022-08-19T00:21:03;15.77;;;10.02;;
63784;SDS011;49927;48.146;11.420;2022-08-19T00:23:28;14.02;;;10.90;;
63784;SDS011;49927;48.146;11.420;2022-08-19T00:25:54;12.98;;;10.20;;
63784;SDS011;49927;48.146;11.420;2022-08-19T00:28:21;12.55;;;9.85;;
63784;SDS011;49927;48.146;11.420;2022-08-19T00:30:46;14.35;;;9.77;;
63784;SDS011;49927;48.146;11.420;2022-08-19T00:33:12;13.43;;;9.85;;
63784;SDS011;49927;48.146;11.420;2022-08-19T00:35:37;13.02;;;9.65;;
63784;SDS011;49927;48.146;11.420;2022-08-19T00:38:03;11.98;;;10.02;;
63784;SDS011;49927;48.146;11.420;2022-08-19T00:40:28;13.27;;;10.32;;
63784;SDS011;49927;48.146;11.420;2022-08-19T00:42:54;13.88;;;9.95;;
63784;SDS011;49927;48.146;11.420;2022-08-19T00:45:24;14.30;;;9.50;;
63784;SDS011;49927;48.146;11.420;2022-08-19T00:47:52;12.43;;;9.90;;
63784;SDS011;49927;48.146;11.420;2022-08-19T00:50:18;14.50;;;9.93;;
63784;SDS011;49927;48.146;11.420;2022-08-19T00:52:46;15.55;;;10.20;;
63784;SDS011;49927;48.146;11.420;2022-08-19T00:55:14;12.82;;;10.27;;
63784;SDS011;49927;48.146;11.420;2022-08-19T00:57:43;13.18;;;10.38;;
63784;SDS011;49927;48.146;11.420;2022-08-19T01:00:12;15.10;;;10.65;;
63784;SDS011;49927;48.146;11.420;2022-08-19T01:02:41;15.15;;;11.25;;
63784;SDS011;49927;48.146;11.420;2022-08-19T01:05:08;14.82;;;11.45;;
63784;SDS011;49927;48.146;11.420;2022-08-19T01:07:35;13.98;;;11.00;;
63784;SDS011;49927;48.146;11.420;2022-08-19T01:10:03;16.38;;;12.32;;
63784;SDS011;49927;48.146;11.420;2022-08-19T01:12:29;14.85;;;11.68;;
63784;SDS011;49927;48.146;11.420;2022-08-19T01:14:55;17.38;;;12.05;;
63784;SDS011;49927;48.146;11.420;2022-08-19T01:17:21;14.63;;;11.20;;
63784;SDS011;49927;48.146;11.420;2022-08-19T01:19:48;15.82;;;11.82;;
63784;SDS011;49927;48.146;11.420;2022-08-19T01:22:14;16.80;;;12.20;;
63784;SDS011;49927;48.146;11.420;2022-08-19T01:24:46;18.70;;;12.48;;
63784;SDS011;49927;48.146;11.420;2022-08-19T01:27:11;14.10;;;11.32;;
63784;SDS011;49927;48.146;11.420;2022-08-19T01:29:38;15.57;;;11.48;;
63784;SDS011;49927;48.146;11.420;2022-08-19T01:32:04;15.00;;;11.13;;
63784;SDS011;49927;48.146;11.420;2022-08-19T01:34:30;18.48;;;13.85;;
63784;SDS011;49927;48.146;11.420;2022-08-19T01:36:55;15.85;;;12.57;;
63784;SDS011;49927;48.146;11.420;2022-08-19T01:39:23;16.42;;;12.45;;
63784;SDS011;49927;48.146;11.420;2022-08-19T01:41:51;16.75;;;11.48;;
63784;SDS011;49927;48.146;11.420;2022-08-19T01:44:16;19.70;;;12.95;;
63784;SDS011;49927;48.146;11.420;2022-08-19T01:46:42;16.98;;;12.68;;
63784;SDS011;49927;48.146;11.420;2022-08-19T01:49:08;16.20;;;12.38;;
63784;SDS011;49927;48.146;11.420;2022-08-19T01:51:34;15.65;;;12.25;;
63784;SDS011;49927;48.146;11.420;2022-08-19T01:54:00;17.13;;;12.18;;
63784;SDS011;49927;48.146;11.420;2022-08-19T01:56:25;15.63;;;12.07;;
63784;SDS011;49927;48.146;11.420;2022-08-19T01:58:53;14.20;;;11.40;;
63784;SDS011;49927;48.146;11.420;2022-08-19T02:01:20;15.45;;;11.32;;
63784;SDS011;49927;48.146;11.420;2022-08-19T02:03:45;15.02;;;10.57;;
63784;SDS011;49927;48.146;11.420;2022-08-19T02:06:11;13.23;;;10.52;;
63784;SDS011;49927;48.146;11.420;2022-08-19T02:08:37;14.25;;;11.15;;
63784;SDS011;49927;48.146;11.420;2022-08-19T02:11:03;13.05;;;9.55;;
63784;SDS011;49927;48.146;11.420;2022-08-19T02:13:30;12.43;;;9.45;;
63784;SDS011;49927;48.146;11.420;2022-08-19T02:15:56;13.77;;;10.13;;
63784;SDS011;49927;48.146;11.420;2022-08-19T02:18:22;11.88;;;9.30;;
63784;SDS011;49927;48.146;11.420;2022-08-19T02:20:47;13.80;;;9.07;;
63784;SDS011;49927;48.146;11.420;2022-08-19T02:23:13;12.25;;;8.90;;
63784;SDS011;49927;48.146;11.420;2022-08-19T02:25:39;11.63;;;8.35;;
63784;SDS011;49927;48.146;11.420;2022-08-19T02:28:05;11.30;;;8.40;;
63784;SDS011;49927;48.146;11.420;2022-08-19T02:30:30;11.77;;;9.25;;
63784;SDS011;49927;48.146;11.420;2022-08-19T02:32:57;10.80;;;8.05;;
63784;SDS011;49927;48.146;11.420;2022-08-19T02:35:23;11.30;;;8.13;;
63784;SDS011;49927;48.146;11.420;2022-08-19T02:37:49;9.68;;;7.60;;
63784;SDS011;49927;48.146;11.420;2022-08-19T02:40:14;10.05;;;8.02;;
63784;SDS011;49927;48.146;11.420;2022-08-19T02:42:40;12.30;;;7.97;;
63784;SDS011;49927;48.146;11.420;2022-08-19T02:45:06;10.10;;;7.93;;
63784;SDS011;49927;48.146;11.420;2022-08-19T02:47:31;9.30;;;7.57;;
63784;SDS011;49927;48.146;11.420;2022-08-19T02:49:59;12.27;;;7.68;;
63784;SDS011;49927;48.146;11.420;2022-08-19T02:52:25;11.27;;;8.43;;
63784;SDS011;49927;48.146;11.420;2022-08-19T02:54:51;10.43;;;7.60;;
63784;SDS011;49927;48.146;11.420;2022-08-19T02:57:16;11.20;;;7.70;;
63784;SDS011;49927;48.146;11.420;2022-08-19T02:59:41;10.52;;;7.93;;
63784;SDS011;49927;48.146;11.420;2022-08-19T03:02:07;9.80;;;7.82;;
63784;SDS011;49927;48.146;11.420;2022-08-19T03:04:32;10.38;;;7.70;;
63784;SDS011;49927;48.146;11.420;2022-08-19T03:06:59;12.73;;;7.88;;
63784;SDS011;49927;48.146;11.420;2022-08-19T03:09:25;10.50;;;7.65;;
63784;SDS011;49927;48.146;11.420;2022-08-19T03:11:50;10.48;;;7.97;;
63784;SDS011;49927;48.146;11.420;2022-08-19T03:14:16;9.18;;;7.53;;
63784;SDS011;49927;48.146;11.420;2022-08-19T03:16:42;11.23;;;7.88;;
63784;SDS011;49927;48.146;11.420;2022-08-19T03:19:09;12.77;;;8.90;;
63784;SDS011;49927;48.146;11.420;2022-08-19T03:21:35;9.18;;;7.13;;
63784;SDS011;49927;48.146;11.420;2022-08-19T03:24:02;9.82;;;7.43;;
63784;SDS011;49927;48.146;11.420;2022-08-19T03:26:30;13.43;;;7.85;;
63784;SDS011;49927;48.146;11.420;2022-08-19T03:28:56;11.13;;;8.52;;
63784;SDS011;49927;48.146;11.420;2022-08-19T03:31:22;12.77;;;8.43;;
63784;SDS011;49927;48.146;11.420;2022-08-19T03:33:48;12.20;;;8.25;;
63784;SDS011;49927;48.146;11.420;2022-08-19T03:36:16;11.07;;;8.50;;
63784;SDS011;49927;48.146;11.420;2022-08-19T03:38:45;11.43;;;8.07;;
63784;SDS011;49927;48.146;11.420;2022-08-19T03:41:14;9.38;;;6.90;;
63784;SDS011;49927;48.146;11.420;2022-08-19T03:43:42;9.80;;;7.57;;
63784;SDS011;49927;48.146;11.420;2022-08-19T03:46:09;9.55;;;7.65;;
63784;SDS011;49927;48.146;11.420;2022-08-19T03:48:35;13.07;;;9.10;;
63784;SDS011;49927;48.146;11.420;2022-08-19T03:51:01;10.93;;;7.95;;
63784;SDS011;49927;48.146;11.420;2022-08-19T03:53:27;11.77;;;9.05;;
63784;SDS011;49927;48.146;11.420;2022-08-19T03:55:54;10.98;;;8.38;;
63784;SDS011;49927;48.146;11.420;2022-08-19T03:58:21;11.13;;;8.65;;
63784;SDS011;49927;48.146;11.420;2022-08-19T04:00:47;11.20;;;8.65;;
63784;SDS011;49927;48.146;11.420;2022-08-19T04:03:12;10.38;;;8.25;;
63784;SDS011;49927;48.146;11.420;2022-08-19T04:05:38;13.65;;;8.98;;
63784;SDS011;49927;48.146;11.420;2022-08-19T04:08:03;13.52;;;9.63;;
63784;SDS011;49927;48.146;11.420;2022-08-19T04:10:29;12.13;;;8.85;;
63784;SDS011;49927;48.146;11.420;2022-08-19T04:12:54;14.27;;;9.48;;
63784;SDS011;49927;48.146;11.420;2022-08-19T04:15:21;11.40;;;8.82;;
63784;SDS011;49927;48.146;11.420;2022-08-19T04:17:47;14.27;;;10.73;;
63784;SDS011;49927;48.146;11.420;2022-08-19T04:20:12;12.77;;;9.10;;
63784;SDS011;49927;48.146;11.420;2022-08-19T04:22:38;12.82;;;9.70;;
63784;SDS011;49927;48.146;11.420;2022-08-19T04:25:03;13.35;;;9.60;;
63784;SDS011;49927;48.146;11.420;2022-08-19T04:27:29;12.70;;;9.82;;
63784;SDS011;49927;48.146;11.420;2022-08-19T04:29:55;15.57;;;10.00;;
63784;SDS011;49927;48.146;11.420;2022-08-19T04:32:22;17.15;;;10.50;;
63784;SDS011;49927;48.146;11.420;2022-08-19T04:34:47;15.23;;;10.40;;
63784;SDS011;49927;48.146;11.420;2022-08-19T04:37:13;14.73;;;10.23;;
63784;SDS011;49927;48.146;11.420;2022-08-19T04:39:38;13.63;;;10.43;;
63784;SDS011;49927;48.146;11.420;2022-08-19T04:42:04;17.20;;;11.45;;
63784;SDS011;49927;48.146;11.420;2022-08-19T04:44:29;15.43;;;10.68;;
63784;SDS011;49927;48.146;11.420;2022-08-19T04:46:55;15.43;;;11.85;;
63784;SDS011;49927;48.146;11.420;2022-08-19T04:49:23;15.10;;;10.52;;
63784;SDS011;49927;48.146;11.420;2022-08-19T04:51:49;16.48;;;11.30;;
63784;SDS011;49927;48.146;11.420;2022-08-19T04:54:15;15.85;;;11.15;;
63784;SDS011;49927;48.146;11.420;2022-08-19T04:56:41;14.38;;;10.52;;
63784;SDS011;49927;48.146;11.420;2022-08-19T04:59:06;15.57;;;10.60;;
63784;SDS011;49927;48.146;11.420;2022-08-19T05:01:32;16.55;;;11.55;;
63784;SDS011;49927;48.146;11.420;2022-08-19T05:03:59;16.17;;;9.85;;
63784;SDS011;49927;48.146;11.420;2022-08-19T05:06:26;13.27;;;10.60;;
63784;SDS011;49927;48.146;11.420;2022-08-19T05:08:51;16.75;;;10.35;;
63784;SDS011;49927;48.146;11.420;2022-08-19T05:11:18;16.40;;;10.85;;
63784;SDS011;49927;48.146;11.420;2022-08-19T05:13:45;15.48;;;10.80;;
63784;SDS011;49927;48.146;11.420;2022-08-19T05:16:11;12.73;;;9.70;;
63784;SDS011;49927;48.146;11.420;2022-08-19T05:18:37;14.70;;;10.50;;
63784;SDS011;49927;48.146;11.420;2022-08-19T05:21:05;15.38;;;11.05;;
63784;SDS011;49927;48.146;11.420;2022-08-19T05:23:33;15.25;;;10.10;;
63784;SDS011;49927;48.146;11.420;2022-08-19T05:25:58;16.33;;;11.25;;
63784;SDS011;49927;48.146;11.420;2022-08-19T05:28:24;17.13;;;10.30;;
63784;SDS011;49927;48.146;11.420;2022-08-19T05:30:49;15.77;;;10.63;;
63784;SDS011;49927;48.146;11.420;2022-08-19T05:33:15;16.10;;;10.88;;
63784;SDS011;49927;48.146;11.420;2022-08-19T05:35:40;15.18;;;10.95;;
63784;SDS011;49927;48.146;11.420;2022-08-19T05:38:06;15.98;;;11.75;;
63784;SDS011;49927;48.146;11.420;2022-08-19T05:40:34;15.52;;;10.80;;
63784;SDS011;49927;48.146;11.420;2022-08-19T05:43:00;17.20;;;11.27;;
63784;SDS011;49927;48.146;11.420;2022-08-19T05:45:26;16.73;;;12.18;;
63784;SDS011;49927;48.146;11.420;2022-08-19T05:47:51;17.48;;;11.93;;
63784;SDS011;49927;48.146;11.420;2022-08-19T05:50:17;19.08;;;13.18;;
63784;SDS011;49927;48.146;11.420;2022-08-19T05:52:42;15.75;;;12.20;;
63784;SDS011;49927;48.146;11.420;2022-08-19T05:55:08;20.58;;;15.18;;
63784;SDS011;49927;48.146;11.420;2022-08-19T05:57:35;22.05;;;15.10;;
63784;SDS011;49927;48.146;11.420;2022-08-19T06:00:01;17.48;;;13.52;;
63784;SDS011;49927;48.146;11.420;2022-08-19T06:02:26;22.83;;;15.60;;
63784;SDS011;49927;48.146;11.420;2022-08-19T06:04:52;20.02;;;15.18;;
63784;SDS011;49927;48.146;11.420;2022-08-19T06:07:17;24.63;;;16.13;;
63784;SDS011;49927;48.146;11.420;2022-08-19T06:09:43;20.75;;;15.40;;
63784;SDS011;49927;48.146;11.420;2022-08-19T06:12:08;21.52;;;15.30;;
63784;SDS011;49927;48.146;11.420;2022-08-19T06:14:35;23.23;;;15.73;;
63784;SDS011;49927;48.146;11.420;2022-08-19T06:17:01;23.55;;;15.77;;
63784;SDS011;49927;48.146;11.420;2022-08-19T06:19:28;28.02;;;17.20;;
63784;SDS011;49927;48.146;11.420;2022-08-19T06:21:54;23.67;;;17.38;;
63784;SDS011;49927;48.146;11.420;2022-08-19T06:24:21;26.77;;;17.45;;
63784;SDS011;49927;48.146;11.420;2022-08-19T06:26:47;29.73;;;18.90;;
63784;SDS011;49927;48.146;11.420;2022-08-19T06:29:14;25.27;;;17.95;;
63784;SDS011;49927;48.146;11.420;2022-08-19T06:31:43;26.73;;;18.50;;
63784;SDS011;49927;48.146;11.420;2022-08-19T06:34:10;27.67;;;18.15;;
63784;SDS011;49927;48.146;11.420;2022-08-19T06:36:37;30.15;;;18.75;;
63784;SDS011;49927;48.146;11.420;2022-08-19T06:39:06;29.35;;;18.60;;
63784;SDS011;49927;48.146;11.420;2022-08-19T06:41:34;25.95;;;18.45;;
63784;SDS011;49927;48.146;11.420;2022-08-19T06:44:00;29.40;;;18.00;;
63784;SDS011;49927;48.146;11.420;2022-08-19T06:46:26;25.45;;;17.55;;
63784;SDS011;49927;48.146;11.420;2022-08-19T06:48:53;27.45;;;18.63;;
63784;SDS011;49927;48.146;11.420;2022-08-19T06:51:19;25.55;;;16.67;;
63784;SDS011;49927;48.146;11.420;2022-08-19T06:53:45;25.85;;;17.35;;
63784;SDS011;49927;48.146;11.420;2022-08-19T06:56:10;21.85;;;14.88;;
63784;SDS011;49927;48.146;11.420;2022-08-19T06:58:36;18.75;;;12.85;;
63784;SDS011;49927;48.146;11.420;2022-08-19T07:01:02;19.58;;;12.32;;
63784;SDS011;49927;48.146;11.420;2022-08-19T07:03:29;23.92;;;15.35;;
63784;SDS011;49927;48.146;11.420;2022-08-19T07:05:56;26.38;;;18.13;;
63784;SDS011;49927;48.146;11.420;2022-08-19T07:08:22;30.45;;;19.20;;
63784;SDS011;49927;48.146;11.420;2022-08-19T07:10:48;31.48;;;19.90;;
63784;SDS011;49927;48.146;11.420;2022-08-19T07:13:13;34.25;;;21.25;;
63784;SDS011;49927;48.146;11.420;2022-08-19T07:15:39;37.35;;;23.58;;
63784;SDS011;49927;48.146;11.420;2022-08-19T07:18:04;35.17;;;23.00;;
63784;SDS011;49927;48.146;11.420;2022-08-19T07:20:30;35.17;;;22.48;;
63784;SDS011;49927;48.146;11.420;2022-08-19T07:22:57;32.70;;;21.42;;
63784;SDS011;49927;48.146;11.420;2022-08-19T07:25:22;37.63;;;23.45;;
63784;SDS011;49927;48.146;11.420;2022-08-19T07:27:48;36.88;;;23.70;;
63784;SDS011;49927;48.146;11.420;2022-08-19T07:30:13;31.35;;;22.15;;
63784;SDS011;49927;48.146;11.420;2022-08-19T07:32:39;38.88;;;23.85;;
63784;SDS011;49927;48.146;11.420;2022-08-19T07:35:05;40.60;;;26.65;;
63784;SDS011;49927;48.146;11.420;2022-08-19T07:37:32;49.10;;;29.45;;
63784;SDS011;49927;48.146;11.420;2022-08-19T07:39:59;48.35;;;28.35;;
63784;SDS011;49927;48.146;11.420;2022-08-19T07:42:25;40.70;;;27.13;;
63784;SDS011;49927;48.146;11.420;2022-08-19T07:44:50;40.95;;;27.38;;
63784;SDS011;49927;48.146;11.420;2022-08-19T07:47:16;43.35;;;25.75;;
63784;SDS011;49927;48.146;11.420;2022-08-19T07:49:42;47.03;;;28.08;;
63784;SDS011;49927;48.146;11.420;2022-08-19T07:52:08;44.47;;;28.10;;
63784;SDS011;49927;48.146;11.420;2022-08-19T07:54:34;45.22;;;27.38;;
63784;SDS011;49927;48.146;11.420;2022-08-19T07:57:02;43.70;;;27.42;;
63784;SDS011;49927;48.146;11.420;2022-08-19T07:59:29;46.15;;;27.92;;
63784;SDS011;49927;48.146;11.420;2022-08-19T08:01:55;49.00;;;29.25;;
63784;SDS011;49927;48.146;11.420;2022-08-19T08:04:21;48.03;;;28.20;;
63784;SDS011;49927;48.146;11.420;2022-08-19T08:06:47;47.35;;;28.75;;
63784;SDS011;49927;48.146;11.420;2022-08-19T08:09:13;51.15;;;31.50;;
63784;SDS011;49927;48.146;11.420;2022-08-19T08:11:41;55.72;;;31.58;;
63784;SDS011;49927;48.146;11.420;2022-08-19T08:14:10;54.63;;;31.95;;
63784;SDS011;49927;48.146;11.420;2022-08-19T08:16:36;52.92;;;30.45;;
63784;SDS011;49927;48.146;11.420;2022-08-19T08:19:03;60.38;;;33.22;;
63784;SDS011;49927;48.146;11.420;2022-08-19T08:21:29;49.03;;;30.27;;
63784;SDS011;49927;48.146;11.420;2022-08-19T08:23:54;58.05;;;31.50;;
63784;SDS011;49927;48.146;11.420;2022-08-19T08:26:20;55.35;;;31.77;;
63784;SDS011;49927;48.146;11.420;2022-08-19T08:28:45;54.75;;;31.85;;
63784;SDS011;49927;48.146;11.420;2022-08-19T08:31:12;60.05;;;32.67;;
63784;SDS011;49927;48.146;11.420;2022-08-19T08:33:38;52.63;;;30.92;;
63784;SDS011;49927;48.146;11.420;2022-08-19T08:36:04;53.97;;;31.48;;
63784;SDS011;49927;48.146;11.420;2022-08-19T08:38:30;51.45;;;32.50;;
63784;SDS011;49927;48.146;11.420;2022-08-19T08:40:58;54.00;;;32.85;;
63784;SDS011;49927;48.146;11.420;2022-08-19T08:43:27;51.72;;;31.63;;
63784;SDS011;49927;48.146;11.420;2022-08-19T08:45:55;54.67;;;33.08;;
63784;SDS011;49927;48.146;11.420;2022-08-19T08:48:34;49.00;;;30.98;;
63784;SDS011;49927;48.146;11.420;2022-08-19T08:51:02;48.65;;;30.27;;
63784;SDS011;49927;48.146;11.420;2022-08-19T08:53:28;49.33;;;30.58;;
63784;SDS011;49927;48.146;11.420;2022-08-19T08:55:56;49.85;;;30.73;;
63784;SDS011;49927;48.146;11.420;2022-08-19T08:58:24;48.22;;;28.10;;
63784;SDS011;49927;48.146;11.420;2022-08-19T09:00:52;48.60;;;29.25;;
63784;SDS011;49927;48.146;11.420;2022-08-19T09:03:19;48.97;;;29.05;;
63784;SDS011;49927;48.146;11.420;2022-08-19T09:05:50;48.75;;;29.20;;
63784;SDS011;49927;48.146;11.420;2022-08-19T09:08:22;49.10;;;27.88;;
63784;SDS011;49927;48.146;11.420;2022-08-19T09:10:57;41.97;;;28.00;;
63784;SDS011;49927;48.146;11.420;2022-08-19T09:13:25;47.38;;;27.63;;
63784;SDS011;49927;48.146;11.420;2022-08-19T09:15:55;42.75;;;26.90;;
63784;SDS011;49927;48.146;11.420;2022-08-19T09:18:23;40.80;;;24.17;;
63784;SDS011;49927;48.146;11.420;2022-08-19T09:20:50;43.30;;;25.40;;
63784;SDS011;49927;48.146;11.420;2022-08-19T09:23:15;43.22;;;26.35;;
63784;SDS011;49927;48.146;11.420;2022-08-19T09:25:41;39.92;;;24.73;;
63784;SDS011;49927;48.146;11.420;2022-08-19T09:28:06;38.90;;;23.58;;
63784;SDS011;49927;48.146;11.420;2022-08-19T09:30:34;39.05;;;23.90;;
63784;SDS011;49927;48.146;11.420;2022-08-19T09:33:01;39.45;;;24.30;;
63784;SDS011;49927;48.146;11.420;2022-08-19T09:35:28;42.22;;;24.02;;
63784;SDS011;49927;48.146;11.420;2022-08-19T09:37:56;42.95;;;25.42;;
63784;SDS011;49927;48.146;11.420;2022-08-19T09:40:22;42.42;;;25.23;;
63784;SDS011;49927;48.146;11.420;2022-08-19T09:42:48;40.90;;;24.98;;
63784;SDS011;49927;48.146;11.420;2022-08-19T09:45:13;38.75;;;24.80;;
63784;SDS011;49927;48.146;11.420;2022-08-19T09:47:39;41.28;;;24.85;;
63784;SDS011;49927;48.146;11.420;2022-08-19T09:50:05;41.70;;;26.05;;
63784;SDS011;49927;48.146;11.420;2022-08-19T09:52:32;39.15;;;22.85;;
63784;SDS011;49927;48.146;11.420;2022-08-19T09:54:59;44.90;;;26.00;;
63784;SDS011;49927;48.146;11.420;2022-08-19T09:57:24;43.13;;;26.92;;
63784;SDS011;49927;48.146;11.420;2022-08-19T09:59:50;40.50;;;23.27;;
63784;SDS011;49927;48.146;11.420;2022-08-19T10:02:15;42.65;;;25.10;;
63784;SDS011;49927;48.146;11.420;2022-08-19T10:04:41;40.22;;;25.33;;
63784;SDS011;49927;48.146;11.420;2022-08-19T10:07:06;35.38;;;21.73;;
63784;SDS011;49927;48.146;11.420;2022-08-19T10:09:32;39.85;;;23.55;;
63784;SDS011;49927;48.146;11.420;2022-08-19T10:11:58;41.97;;;26.00;;
63784;SDS011;49927;48.146;11.420;2022-08-19T10:14:24;44.40;;;25.00;;
63784;SDS011;49927;48.146;11.420;2022-08-19T10:16:49;38.60;;;24.42;;
63784;SDS011;49927;48.146;11.420;2022-08-19T10:19:15;43.70;;;25.58;;
63784;SDS011;49927;48.146;11.420;2022-08-19T10:21:40;45.25;;;24.20;;
63784;SDS011;49927;48.146;11.420;2022-08-19T10:24:06;43.72;;;25.30;;
63784;SDS011;49927;48.146;11.420;2022-08-19T10:26:33;36.88;;;23.85;;
63784;SDS011;49927;48.146;11.420;2022-08-19T10:29:00;40.67;;;24.70;;
63784;SDS011;49927;48.146;11.420;2022-08-19T10:31:27;37.78;;;23.08;;
63784;SDS011;49927;48.146;11.420;2022-08-19T10:33:53;37.60;;;22.95;;
63784;SDS011;49927;48.146;11.420;2022-08-19T10:36:19;42.78;;;24.05;;
63784;SDS011;49927;48.146;11.420;2022-08-19T10:38:46;37.75;;;22.45;;
63784;SDS011;49927;48.146;11.420;2022-08-19T10:41:14;32.33;;;20.25;;
63784;SDS011;49927;48.146;11.420;2022-08-19T10:43:41;32.75;;;19.90;;
63784;SDS011;49927;48.146;11.420;2022-08-19T10:46:08;30.75;;;19.40;;
63784;SDS011;49927;48.146;11.420;2022-08-19T10:48:36;29.17;;;20.10;;
63784;SDS011;49927;48.146;11.420;2022-08-19T10:51:02;29.35;;;19.83;;
63784;SDS011;49927;48.146;11.420;2022-08-19T10:53:28;25.67;;;17.00;;
63784;SDS011;49927;48.146;11.420;2022-08-19T10:55:53;25.40;;;15.80;;
63784;SDS011;49927;48.146;11.420;2022-08-19T10:58:19;15.48;;;12.23;;
63784;SDS011;49927;48.146;11.420;2022-08-19T11:00:50;16.27;;;11.88;;
63784;SDS011;49927;48.146;11.420;2022-08-19T11:03:18;14.00;;;10.52;;
63784;SDS011;49927;48.146;11.420;2022-08-19T11:05:43;12.25;;;9.95;;
63784;SDS011;49927;48.146;11.420;2022-08-19T11:08:09;10.23;;;8.55;;
63784;SDS011;49927;48.146;11.420;2022-08-19T11:10:34;12.32;;;9.40;;
63784;SDS011;49927;48.146;11.420;2022-08-19T11:13:00;9.82;;;7.93;;
63784;SDS011;49927;48.146;11.420;2022-08-19T11:15:25;8.55;;;6.93;;
63784;SDS011;49927;48.146;11.420;2022-08-19T11:17:51;8.60;;;6.82;;
63784;SDS011;49927;48.146;11.420;2022-08-19T11:20:18;8.57;;;6.10;;
63784;SDS011;49927;48.146;11.420;2022-08-19T11:22:43;6.80;;;5.97;;
63784;SDS011;49927;48.146;11.420;2022-08-19T11:25:12;8.23;;;6.60;;
63784;SDS011;49927;48.146;11.420;2022-08-19T11:27:38;8.13;;;6.28;;
63784;SDS011;49927;48.146;11.420;2022-08-19T11:30:04;8.15;;;6.65;;
63784;SDS011;49927;48.146;11.420;2022-08-19T11:32:31;5.82;;;4.72;;
63784;SDS011;49927;48.146;11.420;2022-08-19T11:34:56;4.75;;;4.00;;
63784;SDS011;49927;48.146;11.420;2022-08-19T11:37:23;4.35;;;3.88;;
63784;SDS011;49927;48.146;11.420;2022-08-19T11:39:52;2.90;;;2.42;;
63784;SDS011;49927;48.146;11.420;2022-08-19T11:42:19;3.53;;;2.83;;
63784;SDS011;49927;48.146;11.420;2022-08-19T11:44:44;2.83;;;2.38;;
63784;SDS011;49927;48.146;11.420;2022-08-19T11:47:10;3.45;;;2.30;;
63784;SDS011;49927;48.146;11.420;2022-08-19T11:49:35;4.82;;;2.63;;
63784;SDS011;49927;48.146;11.420;2022-08-19T11:52:01;2.97;;;2.55;;
63784;SDS011;49927;48.146;11.420;2022-08-19T11:54:28;2.47;;;2.17;;
63784;SDS011;49927;48.146;11.420;2022-08-19T11:56:54;4.28;;;2.70;;
63784;SDS011;49927;48.146;11.420;2022-08-19T11:59:19;2.92;;;2.63;;
63784;SDS011;49927;48.146;11.420;2022-08-19T12:01:45;2.92;;;2.30;;
63784;SDS011;49927;48.146;11.420;2022-08-19T12:04:10;2.03;;;1.83;;
63784;SDS011;49927;48.146;11.420;2022-08-19T12:06:37;3.03;;;2.45;;
63784;SDS011;49927;48.146;11.420;2022-08-19T12:09:05;2.58;;;2.30;;
63784;SDS011;49927;48.146;11.420;2022-08-19T12:11:33;4.05;;;2.45;;
63784;SDS011;49927;48.146;11.420;2022-08-19T12:13:58;2.25;;;2.05;;
63784;SDS011;49927;48.146;11.420;2022-08-19T12:16:25;3.25;;;2.40;;
63784;SDS011;49927;48.146;11.420;2022-08-19T12:18:53;3.53;;;2.75;;
63784;SDS011;49927;48.146;11.420;2022-08-19T12:21:20;2.08;;;1.77;;
63784;SDS011;49927;48.146;11.420;2022-08-19T12:23:48;2.55;;;1.83;;
63784;SDS011;49927;48.146;11.420;2022-08-19T12:26:14;2.58;;;1.50;;
63784;SDS011;49927;48.146;11.420;2022-08-19T12:28:41;1.80;;;1.70;;
63784;SDS011;49927;48.146;11.420;2022-08-19T12:31:07;2.42;;;2.08;;
63784;SDS011;49927;48.146;11.420;2022-08-19T12:33:33;3.30;;;2.20;;
63784;SDS011;49927;48.146;11.420;2022-08-19T12:36:00;3.75;;;2.80;;
63784;SDS011;49927;48.146;11.420;2022-08-19T12:38:26;3.03;;;2.40;;
63784;SDS011;49927;48.146;11.420;2022-08-19T12:40:52;3.83;;;2.20;;
63784;SDS011;49927;48.146;11.420;2022-08-19T12:43:18;2.45;;;2.25;;
63784;SDS011;49927;48.146;11.420;2022-08-19T12:45:52;3.33;;;2.50;;
63784;SDS011;49927;48.146;11.420;2022-08-19T12:48:18;3.13;;;2.63;;
63784;SDS011;49927;48.146;11.420;2022-08-19T12:50:44;2.67;;;2.47;;
63784;SDS011;49927;48.146;11.420;2022-08-19T12:53:13;3.28;;;2.78;;
63784;SDS011;49927;48.146;11.420;2022-08-19T12:55:38;3.17;;;2.55;;
63784;SDS011;49927;48.146;11.420;2022-08-19T12:58:04;4.63;;;2.60;;
63784;SDS011;49927;48.146;11.420;2022-08-19T13:00:29;3.15;;;2.33;;
63784;SDS011;49927;48.146;11.420;2022-08-19T13:02:56;2.35;;;2.13;;
63784;SDS011;49927;48.146;11.420;2022-08-19T13:05:22;2.20;;;1.63;;
63784;SDS011;49927;48.146;11.420;2022-08-19T13:07:49;5.28;;;2.05;;
63784;SDS011;49927;48.146;11.420;2022-08-19T13:10:18;3.25;;;2.80;;
63784;SDS011;49927;48.146;11.420;2022-08-19T13:12:45;3.42;;;2.70;;
63784;SDS011;49927;48.146;11.420;2022-08-19T13:15:13;3.08;;;2.58;;
63784;SDS011;49927;48.146;11.420;2022-08-19T13:17:39;3.38;;;2.97;;
63784;SDS011;49927;48.146;11.420;2022-08-19T13:20:07;3.33;;;3.03;;
63784;SDS011;49927;48.146;11.420;2022-08-19T13:22:34;5.50;;;3.30;;
63784;SDS011;49927;48.146;11.420;2022-08-19T13:24:59;5.90;;;2.80;;
63784;SDS011;49927;48.146;11.420;2022-08-19T13:27:25;3.72;;;3.38;;
63784;SDS011;49927;48.146;11.420;2022-08-19T13:29:50;3.97;;;2.95;;
63784;SDS011;49927;48.146;11.420;2022-08-19T13:32:16;3.45;;;2.92;;
63784;SDS011;49927;48.146;11.420;2022-08-19T13:34:41;4.97;;;3.20;;
63784;SDS011;49927;48.146;11.420;2022-08-19T13:37:08;5.00;;;3.10;;
63784;SDS011;49927;48.146;11.420;2022-08-19T13:39:34;3.88;;;3.42;;
63784;SDS011;49927;48.146;11.420;2022-08-19T13:42:00;3.85;;;3.25;;
63784;SDS011;49927;48.146;11.420;2022-08-19T13:44:27;4.85;;;3.80;;
63784;SDS011;49927;48.146;11.420;2022-08-19T13:46:53;5.47;;;3.97;;
63784;SDS011;49927;48.146;11.420;2022-08-19T13:49:18;5.75;;;4.18;;
63784;SDS011;49927;48.146;11.420;2022-08-19T13:51:44;5.50;;;4.60;;
63784;SDS011;49927;48.146;11.420;2022-08-19T13:54:11;5.00;;;4.15;;
63784;SDS011;49927;48.146;11.420;2022-08-19T13:56:39;5.55;;;4.43;;
63784;SDS011;49927;48.146;11.420;2022-08-19T13:59:05;5.40;;;4.22;;
63784;SDS011;49927;48.146;11.420;2022-08-19T14:01:31;4.43;;;4.00;;
63784;SDS011;49927;48.146;11.420;2022-08-19T14:03:57;4.25;;;3.83;;
63784;SDS011;49927;48.146;11.420;2022-08-19T14:06:22;4.93;;;3.85;;
63784;SDS011;49927;48.146;11.420;2022-08-19T14:08:47;4.15;;;3.50;;
63784;SDS011;49927;48.146;11.420;2022-08-19T14:11:17;5.20;;;3.95;;
63784;SDS011;49927;48.146;11.420;2022-08-19T14:13:43;2.95;;;2.65;;